sensor_id;sensor_type;location;lat;lon;timestamp;temperature;humidity
55151;DHT22;41041;43.162;20.538;2023-05-19T11:29:47;512.70;2380.80
55151;DHT22;41041;43.162;20.538;2023-05-19T11:32:13;512.70;2380.80
55151;DHT22;41041;43.162;20.538;2023-05-19T11:37:06;512.90;2380.80
55151;DHT22;41041;43.162;20.538;2023-05-19T11:39:33;512.70;2380.80
55151;DHT22;41041;43.162;20.538;2023-05-19T11:41:59;512.50;2380.80
55151;DHT22;41041;43.162;20.538;2023-05-19T11:44:26;512.30;2380.80
55151;DHT22;41041;43.162;20.538;2023-05-19T11:46:52;512.30;2380.80
55151;DHT22;41041;43.162;20.538;2023-05-19T11:49:18;512.40;2380.80
55151;DHT22;41041;43.162;20.538;2023-05-19T11:51:46;512.60;2380.80
55151;DHT22;41041;43.162;20.538;2023-05-19T11:54:12;512.70;2380.80
55151;DHT22;41041;43.162;20.538;2023-05-19T11:56:42;537.80;2406.40
55151;DHT22;41041;43.162;20.538;2023-05-19T11:59:08;537.60;2406.40
55151;DHT22;41041;43.162;20.538;2023-05-19T12:01:34;537.70;2380.80
55151;DHT22;41041;43.162;20.538;2023-05-19T12:04:01;537.90;2406.40
55151;DHT22;41041;43.162;20.538;2023-05-19T12:06:28;537.80;2355.20
55151;DHT22;41041;43.162;20.538;2023-05-19T12:08:54;537.70;2329.60
55151;DHT22;41041;43.162;20.538;2023-05-19T12:11:21;537.70;2304.00
55151;DHT22;41041;43.162;20.538;2023-05-19T12:13:47;537.80;2329.60
55151;DHT22;41041;43.162;20.538;2023-05-19T12:16:18;537.80;2304.00
55151;DHT22;41041;43.162;20.538;2023-05-19T12:19:04;537.90;2278.40
55151;DHT22;41041;43.162;20.538;2023-05-19T12:21:31;538.20;2304.00
55151;DHT22;41041;43.162;20.538;2023-05-19T12:29:18;538.40;2252.80
55151;DHT22;41041;43.162;20.538;2023-05-19T12:31:45;538.20;2278.40
55151;DHT22;41041;43.162;20.538;2023-05-19T12:34:37;538.20;2252.80
55151;DHT22;41041;43.162;20.538;2023-05-19T12:37:06;538.30;2252.80
55151;DHT22;41041;43.162;20.538;2023-05-19T13:12:22;564.00;2252.80
55151;DHT22;41041;43.162;20.538;2023-05-19T13:14:49;563.80;2304.00
55151;DHT22;41041;43.162;20.538;2023-05-19T14:07:04;589.40;2124.80
55151;DHT22;41041;43.162;20.538;2023-05-19T14:09:30;589.10;2150.40
55151;DHT22;41041;43.162;20.538;2023-05-19T14:11:56;588.80;2150.40
55151;DHT22;41041;43.162;20.538;2023-05-19T14:14:22;564.10;2201.60
55151;DHT22;41041;43.162;20.538;2023-05-19T14:16:48;564.00;2176.00
55151;DHT22;41041;43.162;20.538;2023-05-19T14:19:14;563.90;2176.00
55151;DHT22;41041;43.162;20.538;2023-05-19T14:21:39;563.90;2176.00
55151;DHT22;41041;43.162;20.538;2023-05-19T14:24:05;563.90;2176.00
55151;DHT22;41041;43.162;20.538;2023-05-19T14:26:31;564.00;2201.60
55151;DHT22;41041;43.162;20.538;2023-05-19T14:28:57;564.00;2176.00
55151;DHT22;41041;43.162;20.538;2023-05-19T14:31:23;564.00;2176.00
55151;DHT22;41041;43.162;20.538;2023-05-19T14:33:50;588.80;2150.40
55151;DHT22;41041;43.162;20.538;2023-05-19T14:38:42;589.00;2124.80
55151;DHT22;41041;43.162;20.538;2023-05-19T14:41:08;564.00;2176.00
55151;DHT22;41041;43.162;20.538;2023-05-19T14:43:34;563.90;2150.40
55151;DHT22;41041;43.162;20.538;2023-05-19T14:45:59;563.90;2150.40
55151;DHT22;41041;43.162;20.538;2023-05-19T14:48:25;563.90;2176.00
55151;DHT22;41041;43.162;20.538;2023-05-19T14:50:51;563.80;2176.00
55151;DHT22;41041;43.162;20.538;2023-05-19T14:53:17;563.90;2176.00
55151;DHT22;41041;43.162;20.538;2023-05-19T14:55:43;564.10;2176.00
55151;DHT22;41041;43.162;20.538;2023-05-19T15:01:25;589.70;2150.40
55151;DHT22;41041;43.162;20.538;2023-05-19T15:06:17;614.60;2124.80
55151;DHT22;41041;43.162;20.538;2023-05-19T15:08:43;614.70;2099.20
55151;DHT22;41041;43.162;20.538;2023-05-19T15:11:09;614.90;2073.60
55151;DHT22;41041;43.162;20.538;2023-05-19T15:13:35;614.90;2124.80
55151;DHT22;41041;43.162;20.538;2023-05-19T15:20:53;615.20;2048.00
55151;DHT22;41041;43.162;20.538;2023-05-19T15:23:19;614.90;2048.00
55151;DHT22;41041;43.162;20.538;2023-05-19T15:25:45;614.80;2073.60
55151;DHT22;41041;43.162;20.538;2023-05-19T15:28:11;614.40;2073.60
55151;DHT22;41041;43.162;20.538;2023-05-19T15:30:37;614.60;2073.60
55151;DHT22;41041;43.162;20.538;2023-05-19T15:33:03;614.70;2073.60
55151;DHT22;41041;43.162;20.538;2023-05-19T15:35:29;614.70;2073.60
55151;DHT22;41041;43.162;20.538;2023-05-19T15:37:54;614.90;2073.60
55151;DHT22;41041;43.162;20.538;2023-05-19T15:40:20;614.70;2048.00
55151;DHT22;41041;43.162;20.538;2023-05-19T15:42:46;614.50;2073.60
55151;DHT22;41041;43.162;20.538;2023-05-19T15:45:12;589.60;2099.20
55151;DHT22;41041;43.162;20.538;2023-05-19T15:47:39;589.50;2099.20
55151;DHT22;41041;43.162;20.538;2023-05-19T15:50:05;589.30;2099.20
55151;DHT22;41041;43.162;20.538;2023-05-19T15:52:31;589.10;2099.20
55151;DHT22;41041;43.162;20.538;2023-05-19T16:24:38;589.60;2124.80
55151;DHT22;41041;43.162;20.538;2023-05-19T16:27:04;589.70;2150.40
55151;DHT22;41041;43.162;20.538;2023-05-19T16:29:30;614.40;2150.40
55151;DHT22;41041;43.162;20.538;2023-05-19T16:37:44;614.50;2124.80
55151;DHT22;41041;43.162;20.538;2023-05-19T16:40:10;614.40;2124.80
55151;DHT22;41041;43.162;20.538;2023-05-19T16:42:36;614.40;2124.80
55151;DHT22;41041;43.162;20.538;2023-05-19T16:47:54;589.60;2124.80
55151;DHT22;41041;43.162;20.538;2023-05-19T16:50:20;589.70;2124.80
55151;DHT22;41041;43.162;20.538;2023-05-19T16:52:51;589.60;2124.80
55151;DHT22;41041;43.162;20.538;2023-05-19T16:55:17;589.50;2150.40
55151;DHT22;41041;43.162;20.538;2023-05-19T16:57:45;589.30;2150.40
55151;DHT22;41041;43.162;20.538;2023-05-19T17:00:11;589.20;2150.40
55151;DHT22;41041;43.162;20.538;2023-05-19T17:02:37;589.30;2150.40
55151;DHT22;41041;43.162;20.538;2023-05-19T17:05:03;589.40;2150.40
55151;DHT22;41041;43.162;20.538;2023-05-19T17:07:35;589.40;2150.40
55151;DHT22;41041;43.162;20.538;2023-05-19T17:10:01;614.40;2150.40
55151;DHT22;41041;43.162;20.538;2023-05-19T17:12:40;614.70;2099.20
55151;DHT22;41041;43.162;20.538;2023-05-19T17:17:32;614.80;2099.20
55151;DHT22;41041;43.162;20.538;2023-05-19T17:20:02;614.50;2099.20
55151;DHT22;41041;43.162;20.538;2023-05-19T17:22:28;589.60;2124.80
55151;DHT22;41041;43.162;20.538;2023-05-19T17:24:56;589.60;2150.40
55151;DHT22;41041;43.162;20.538;2023-05-19T17:27:34;589.50;2150.40
55151;DHT22;41041;43.162;20.538;2023-05-19T17:30:05;589.20;2150.40
55151;DHT22;41041;43.162;20.538;2023-05-19T17:32:31;589.30;2150.40
55151;DHT22;41041;43.162;20.538;2023-05-19T17:37:35;589.10;2176.00
55151;DHT22;41041;43.162;20.538;2023-05-19T19:13:33;461.70;2380.80
55151;DHT22;41041;43.162;20.538;2023-05-19T19:15:59;461.60;2380.80
55151;DHT22;41041;43.162;20.538;2023-05-19T19:18:25;461.60;2380.80
55151;DHT22;41041;43.162;20.538;2023-05-19T19:20:51;461.70;2380.80
55151;DHT22;41041;43.162;20.538;2023-05-19T19:23:17;461.50;2380.80
55151;DHT22;41041;43.162;20.538;2023-05-19T19:25:43;461.50;2380.80
55151;DHT22;41041;43.162;20.538;2023-05-19T21:35:15;435.20;2355.20
55151;DHT22;41041;43.162;20.538;2023-05-19T21:37:41;410.40;2355.20
55151;DHT22;41041;43.162;20.538;2023-05-19T21:40:07;410.20;2355.20
55151;DHT22;41041;43.162;20.538;2023-05-19T21:42:34;410.20;2355.20
55151;DHT22;41041;43.162;20.538;2023-05-19T21:47:27;410.50;2355.20
55151;DHT22;41041;43.162;20.538;2023-05-19T21:59:38;410.50;2355.20
55151;DHT22;41041;43.162;20.538;2023-05-19T22:02:04;410.20;2355.20
55151;DHT22;41041;43.162;20.538;2023-05-19T22:04:30;410.10;2355.20
55151;DHT22;41041;43.162;20.538;2023-05-19T22:10:18;409.90;2355.20
55151;DHT22;41041;43.162;20.538;2023-05-19T22:12:44;409.90;2355.20
55151;DHT22;41041;43.162;20.538;2023-05-19T22:15:10;410.00;2355.20
55151;DHT22;41041;43.162;20.538;2023-05-19T22:17:38;410.00;2355.20
55151;DHT22;41041;43.162;20.538;2023-05-19T22:20:05;409.90;2355.20
